เยรูซาเลม, ประเทศอิสราเอล

04:19 PM IDT วัน กรกฎาคม 31, 2015 (GMT +0300)
IISRAELG2 | | Change Station
CLOSE
Current Station
Personal Weather Stations
Location: Givat Zeev, ISRAEL
Elevation: 2543 ft
Nearby Weather Stations

Elev 2543 ft 31.86 °N, 35.16 °E | Updated 2 minutes ago

Clear
ท้องฟ้าแจ่มใส
87.4 ฟาเรนไฮน์
Feels Like 88 ฟาเรนไฮน์
N
6.0
ลม ความผันแปร ลม from ทางทิศตะวันตกและทิศตะวันตกเฉียงเหนือ
Gusts 13.0 mph

วันนี้
High -- | Low -- ฟาเรนไฮน์
--% Chance of Precip.
Yesterday
High -- | Low -- ฟาเรนไฮน์
Precip. -- นิ้ว
5:53 AM 7:36 PM
พระจันทร์เต็มดวง, 100% visible
ความดัน 29.86 นิ้ว
ทัศนวิสัย -9999.0 ไมล์
เมฆ
ดัชนีความร้อน 88 ฟาเรนไฮน์
อุณหภูมิที่อากาศอาจจับตัวเป็นหยาดน้ำค้าง 62 ฟาเรนไฮน์
ความชื้น 42%
Rainfall 0.00 นิ้ว
Snow Depth Not available.
UV Not available.
Pollen Not available.
Air Quality Not available.
Flu Activity Not available.
METAR OJAI 311300Z 24013KT CAVOK 36/09 Q1011 NOSIG

More Conditions Fewer Conditions

ความดัน 29.86 นิ้ว
ทัศนวิสัย -9999.0 ไมล์
เมฆ
ดัชนีความร้อน 88 ฟาเรนไฮน์
อุณหภูมิที่อากาศอาจจับตัวเป็นหยาดน้ำค้าง 62 ฟาเรนไฮน์
ความชื้น 42%
Rainfall 0.00 นิ้ว
Snow Depth Not available.
UV Not available.
Pollen Not available.
Air Quality Not available.
Flu Activity Not available.
METAR OJAI 311300Z 24013KT CAVOK 36/09 Q1011 NOSIG

More Conditions Fewer Conditions

10-Day Weather Forecast

×

Almanac

ดาราศาสตร์

Jul. 31, 2015 Rise Set
Actual Time
Civil Twilight
Nautical Twilight
Astronomical Twilight
Moon
Length Of Visible Light
ความยาวของวัน
Tomorrow will be .
, % of the Moon is Illuminated

Today's Extremes

Country Highs Country Lows

Community

WunderPhotos

Upload Photos

1,842,653 photos uploaded!

WunderBlogs® & News

Nearby

Air Quality

  Air Quality AQ Index Pollutant
Not available.

Snow Depth

Station Depth Elevation

Earthquake Activity

City Distance Mag. Time & Date
Minimum magnitude displayed is 2.5.

Coastal Water Temperatures

สถานที่ อุณหภูมิ

Stations

Nearby Weather Stations

Station Location Temp ลมหนาว อุณหภูมิที่อากาศอาจจับตัวเป็นหยาดน้ำค้าง ความชื้น ลม Precip. Elev ปรับปรุงล่าสุด Type